createdAt,value
2018-09-22T00:01:36.079Z,99.90
2018-09-22T00:04:04.235Z,99.90
2018-09-22T00:06:32.504Z,99.90
2018-09-22T00:09:00.703Z,99.90
2018-09-22T00:11:28.921Z,99.90
2018-09-22T00:13:57.108Z,99.90
2018-09-22T00:16:25.356Z,99.90
2018-09-22T00:18:53.580Z,99.90
2018-09-22T00:21:21.776Z,99.90
2018-09-22T00:23:50.061Z,99.90
2018-09-22T00:26:18.472Z,99.90
2018-09-22T00:28:46.663Z,99.90
2018-09-22T00:31:14.865Z,99.90
2018-09-22T00:33:43.099Z,99.90
2018-09-22T00:36:15.693Z,99.90
2018-09-22T00:38:43.868Z,99.90
2018-09-22T00:41:12.101Z,99.90
2018-09-22T00:43:40.307Z,99.90
2018-09-22T00:46:08.506Z,99.90
2018-09-22T00:48:58.709Z,99.90
2018-09-22T00:51:57.250Z,99.90
2018-09-22T00:54:55.123Z,99.90
2018-09-22T00:57:52.886Z,99.90
2018-09-22T01:00:50.600Z,99.90
2018-09-22T01:03:49.175Z,99.90
2018-09-22T01:06:47.991Z,99.90
2018-09-22T01:09:16.183Z,99.90
2018-09-22T01:12:07.040Z,99.90
2018-09-22T01:15:04.950Z,99.90
2018-09-22T01:18:03.222Z,99.90
2018-09-22T01:21:01.613Z,99.90
2018-09-22T01:24:00.072Z,99.90
2018-09-22T01:26:57.827Z,99.90
2018-09-22T01:29:56.607Z,99.90
2018-09-22T01:32:24.829Z,99.90
2018-09-22T01:35:15.327Z,99.90
2018-09-22T01:38:13.633Z,99.90
2018-09-22T01:41:11.320Z,99.90
2018-09-22T01:44:09.732Z,99.90
2018-09-22T01:47:07.622Z,99.90
2018-09-22T01:50:05.286Z,99.90
2018-09-22T01:53:03.053Z,99.90
2018-09-22T01:55:31.276Z,99.90
2018-09-22T01:58:22.313Z,99.90
2018-09-22T02:01:20.468Z,99.90
2018-09-22T02:04:18.355Z,99.90
2018-09-22T02:07:15.984Z,99.90
2018-09-22T02:10:13.767Z,99.90
2018-09-22T02:13:12.468Z,99.90
2018-09-22T02:16:10.355Z,99.90
2018-09-22T02:18:38.567Z,99.90
2018-09-22T02:21:29.357Z,99.90
2018-09-22T02:24:27.764Z,99.90
2018-09-22T02:27:25.504Z,99.90
2018-09-22T02:30:23.636Z,99.90
2018-09-22T02:33:21.808Z,99.90
2018-09-22T02:36:20.509Z,99.90
2018-09-22T02:39:19.328Z,99.90
2018-09-22T02:41:47.567Z,99.90
2018-09-22T02:44:37.868Z,99.90
2018-09-22T02:47:06.260Z,99.90
2018-09-22T02:49:34.489Z,99.90
2018-09-22T02:52:02.706Z,99.90
2018-09-22T02:54:30.936Z,99.90
2018-09-22T02:56:59.335Z,99.90
2018-09-22T02:59:27.556Z,99.90
2018-09-22T03:01:55.809Z,99.90
2018-09-22T03:04:24.885Z,99.90
2018-09-22T03:06:53.840Z,99.90
2018-09-22T03:09:22.020Z,99.90
2018-09-22T03:11:50.296Z,99.90
2018-09-22T03:14:18.547Z,99.90
2018-09-22T03:16:46.741Z,99.90
2018-09-22T03:19:14.972Z,99.90
2018-09-22T03:21:43.147Z,99.90
2018-09-22T03:24:11.431Z,99.90
2018-09-22T03:26:39.620Z,99.90
2018-09-22T03:29:08.125Z,99.90
2018-09-22T03:31:36.390Z,99.90
2018-09-22T03:34:04.589Z,99.90
2018-09-22T03:36:32.816Z,99.90
2018-09-22T03:39:01.101Z,99.90
2018-09-22T03:41:29.356Z,99.90
2018-09-22T03:43:57.554Z,99.90
2018-09-22T03:46:25.730Z,99.90
2018-09-22T03:48:53.937Z,99.90
2018-09-22T03:51:22.120Z,99.90
2018-09-22T03:53:54.528Z,99.90
2018-09-22T03:56:22.756Z,99.90
2018-09-22T03:58:50.974Z,99.90
2018-09-22T04:01:19.153Z,99.90
2018-09-22T04:03:47.343Z,99.90
2018-09-22T04:06:15.568Z,99.90
2018-09-22T04:08:47.027Z,99.90
2018-09-22T04:11:15.211Z,99.90
2018-09-22T04:13:43.465Z,99.90
2018-09-22T04:16:18.520Z,99.90
2018-09-22T04:18:46.708Z,99.90
2018-09-22T04:21:17.725Z,99.90
2018-09-22T04:23:45.980Z,99.90
2018-09-22T04:26:14.168Z,99.90
2018-09-22T04:28:43.320Z,99.90
2018-09-22T04:31:11.510Z,99.90
2018-09-22T04:33:39.705Z,99.90
2018-09-22T04:36:08.007Z,99.90
2018-09-22T04:38:36.773Z,99.90
2018-09-22T04:41:05.529Z,99.90
2018-09-22T04:43:33.819Z,99.90
2018-09-22T04:46:06.467Z,99.90
2018-09-22T04:48:34.658Z,99.90
2018-09-22T04:51:03.135Z,99.90
2018-09-22T04:53:31.451Z,99.90
2018-09-22T04:56:02.835Z,99.90
2018-09-22T04:58:31.060Z,99.90
2018-09-22T05:00:59.286Z,99.90
2018-09-22T05:03:27.577Z,99.90
2018-09-22T05:05:55.792Z,99.90
2018-09-22T05:08:23.979Z,99.90
2018-09-22T05:10:53.111Z,99.90
2018-09-22T05:13:21.657Z,99.90
2018-09-22T05:15:49.918Z,99.90
2018-09-22T05:18:18.112Z,99.90
2018-09-22T05:20:46.344Z,99.90
2018-09-22T05:23:14.548Z,99.90
2018-09-22T05:25:47.164Z,99.90
2018-09-22T05:28:15.416Z,99.90
2018-09-22T05:30:43.615Z,99.90
2018-09-22T05:33:12.224Z,99.90
2018-09-22T05:35:40.430Z,99.90
2018-09-22T05:38:08.649Z,99.90
2018-09-22T05:40:36.866Z,99.90
2018-09-22T05:43:05.107Z,99.90
2018-09-22T05:45:33.287Z,99.90
2018-09-22T05:48:01.501Z,99.90
2018-09-22T05:50:29.874Z,99.90
2018-09-22T05:52:58.350Z,99.90
2018-09-22T05:55:32.209Z,99.90
2018-09-22T05:58:00.405Z,99.90
2018-09-22T06:00:38.321Z,99.90
2018-09-22T06:03:09.886Z,99.90
2018-09-22T06:05:38.488Z,99.90
2018-09-22T06:08:06.952Z,99.90
2018-09-22T06:10:38.440Z,99.90
2018-09-22T06:13:06.876Z,99.90
2018-09-22T06:15:35.164Z,99.90
2018-09-22T06:18:03.394Z,99.90
2018-09-22T06:20:31.616Z,99.90
2018-09-22T06:23:00.132Z,99.90
2018-09-22T06:25:28.348Z,99.90
2018-09-22T06:27:56.572Z,99.90
2018-09-22T06:30:25.103Z,99.90
2018-09-22T06:32:53.280Z,99.90
2018-09-22T06:35:21.505Z,99.90
2018-09-22T06:37:49.704Z,99.90
2018-09-22T06:40:17.924Z,99.90
2018-09-22T06:42:46.125Z,99.90
2018-09-22T06:45:14.328Z,99.90
2018-09-22T06:47:42.533Z,99.90
2018-09-22T06:50:10.808Z,99.90
2018-09-22T06:52:39.039Z,99.90
2018-09-22T06:55:07.279Z,99.90
2018-09-22T06:57:35.536Z,99.90
2018-09-22T07:00:03.736Z,99.90
2018-09-22T07:02:31.937Z,99.90
2018-09-22T07:05:00.151Z,99.90
2018-09-22T07:07:28.473Z,99.90
2018-09-22T07:09:56.796Z,99.90
2018-09-22T07:12:25.864Z,99.90
2018-09-22T07:14:54.104Z,99.90
2018-09-22T07:17:22.303Z,99.90
2018-09-22T07:19:50.540Z,99.90
2018-09-22T07:22:24.268Z,99.90
2018-09-22T07:24:52.492Z,99.90
2018-09-22T07:27:23.783Z,99.90
2018-09-22T07:29:51.985Z,99.90
2018-09-22T07:32:20.172Z,99.90
2018-09-22T07:34:48.716Z,99.90
2018-09-22T07:37:18.259Z,99.90
2018-09-22T07:39:46.459Z,99.90
2018-09-22T07:42:18.953Z,99.90
2018-09-22T07:44:47.222Z,99.90
2018-09-22T07:47:44.715Z,99.90
2018-09-22T07:50:42.784Z,99.90
2018-09-22T07:53:41.163Z,99.90
2018-09-22T07:56:39.136Z,99.90
2018-09-22T07:59:37.445Z,99.90
2018-09-22T08:02:35.062Z,99.90
2018-09-22T08:05:33.756Z,99.90
2018-09-22T08:08:02.014Z,99.90
2018-09-22T08:10:52.904Z,99.90
2018-09-22T08:13:50.868Z,99.90
2018-09-22T08:16:48.368Z,99.90
2018-09-22T08:19:46.505Z,99.90
2018-09-22T08:22:44.448Z,99.90
2018-09-22T08:25:42.277Z,99.90
2018-09-22T08:28:40.604Z,99.90
2018-09-22T08:31:08.863Z,99.90
2018-09-22T08:33:59.160Z,99.90
2018-09-22T08:36:57.127Z,99.90
2018-09-22T08:39:54.731Z,99.90
2018-09-22T08:42:52.847Z,99.90
2018-09-22T08:45:21.385Z,99.90
2018-09-22T08:47:50.048Z,99.90
2018-09-22T08:50:18.425Z,99.90
2018-09-22T08:52:46.644Z,99.90
2018-09-22T08:55:14.837Z,99.90
2018-09-22T08:57:43.076Z,99.90
2018-09-22T09:00:11.289Z,99.90
2018-09-22T09:02:39.465Z,99.90
2018-09-22T09:05:07.769Z,99.90
2018-09-22T09:07:35.935Z,99.90
2018-09-22T09:10:04.100Z,99.90
2018-09-22T09:12:32.348Z,99.90
2018-09-22T09:15:03.528Z,99.90
2018-09-22T09:17:31.797Z,99.90
2018-09-22T09:20:00.052Z,99.90
2018-09-22T09:22:28.638Z,99.90
2018-09-22T09:24:56.925Z,99.90
2018-09-22T09:27:25.113Z,99.90
2018-09-22T09:29:53.791Z,99.90
2018-09-22T09:32:22.160Z,99.90
2018-09-22T09:34:50.394Z,99.90
2018-09-22T09:37:18.574Z,99.90
2018-09-22T09:39:46.812Z,99.90
2018-09-22T09:42:15.063Z,99.90
2018-09-22T09:44:43.256Z,99.90
2018-09-22T09:47:11.477Z,99.90
2018-09-22T09:49:39.676Z,99.90
2018-09-22T09:52:08.192Z,99.90
2018-09-22T09:54:36.421Z,99.90
2018-09-22T09:57:10.108Z,99.90
2018-09-22T09:59:41.882Z,99.90
2018-09-22T10:02:10.097Z,99.90
2018-09-22T10:04:38.292Z,99.90
2018-09-22T10:07:06.613Z,99.90
2018-09-22T10:09:34.806Z,99.90
2018-09-22T10:12:03.807Z,99.90
2018-09-22T10:14:35.933Z,99.90
2018-09-22T10:19:37.968Z,99.90
2018-09-22T10:22:06.594Z,99.90
2018-09-22T10:24:35.437Z,99.90
2018-09-22T10:27:03.632Z,99.90
2018-09-22T10:29:31.980Z,99.90
2018-09-22T10:32:00.161Z,99.90
2018-09-22T10:34:28.576Z,99.90
2018-09-22T10:36:56.743Z,99.90
2018-09-22T10:39:24.952Z,99.90
2018-09-22T10:41:53.154Z,99.90
2018-09-22T10:44:21.425Z,99.90
2018-09-22T10:46:53.869Z,99.90
2018-09-22T10:49:22.269Z,99.90
2018-09-22T10:51:50.505Z,99.90
2018-09-22T10:54:18.716Z,99.90
2018-09-22T10:56:46.913Z,99.90
2018-09-22T10:59:15.151Z,99.90
2018-09-22T11:01:46.549Z,99.90
2018-09-22T11:04:15.326Z,99.90
2018-09-22T11:06:43.537Z,99.90
2018-09-22T11:09:11.765Z,99.90
2018-09-22T11:11:39.931Z,99.90
2018-09-22T11:14:08.144Z,99.90
2018-09-22T11:16:36.370Z,99.90
2018-09-22T11:19:04.876Z,99.90
2018-09-22T11:21:33.103Z,99.90
2018-09-22T11:24:01.319Z,99.90
2018-09-22T11:26:29.549Z,99.90
2018-09-22T11:28:57.744Z,99.90
2018-09-22T11:31:33.516Z,99.90
2018-09-22T11:34:01.765Z,99.90
2018-09-22T11:36:30.451Z,99.80
2018-09-22T11:38:58.937Z,99.90
2018-09-22T11:41:27.132Z,99.90
2018-09-22T11:43:55.492Z,99.90
2018-09-22T11:46:23.742Z,99.80
2018-09-22T11:48:51.869Z,99.60
2018-09-22T11:51:20.127Z,99.20
2018-09-22T11:53:48.417Z,98.60
2018-09-22T11:56:16.697Z,98.50
2018-09-22T11:58:44.839Z,98.40
2018-09-22T12:01:13.061Z,99.00
2018-09-22T12:03:41.252Z,99.10
2018-09-22T12:06:09.488Z,98.40
2018-09-22T12:08:38.105Z,97.40
2018-09-22T12:11:06.290Z,97.20
2018-09-22T12:13:34.551Z,96.90
2018-09-22T12:16:02.800Z,97.00
2018-09-22T12:18:31.028Z,96.50
2018-09-22T12:20:59.307Z,96.80
2018-09-22T12:23:27.532Z,97.30
2018-09-22T12:25:55.830Z,96.60
2018-09-22T12:28:24.038Z,96.70
2018-09-22T12:30:52.257Z,96.50
2018-09-22T12:33:20.523Z,96.20
2018-09-22T12:35:48.758Z,96.30
2018-09-22T12:38:17.196Z,96.00
2018-09-22T12:40:45.487Z,96.10
2018-09-22T12:43:13.769Z,96.30
2018-09-22T12:45:41.984Z,95.70
2018-09-22T12:48:10.196Z,95.40
2018-09-22T12:50:38.449Z,95.80
2018-09-22T12:53:06.731Z,95.70
2018-09-22T12:55:35.042Z,95.60
2018-09-22T12:58:03.261Z,95.60
2018-09-22T13:00:31.758Z,95.20
2018-09-22T13:03:00.232Z,95.20
2018-09-22T13:05:28.492Z,95.60
2018-09-22T13:07:56.727Z,95.10
2018-09-22T13:10:24.982Z,94.20
2018-09-22T13:12:53.235Z,94.30
2018-09-22T13:15:22.244Z,94.30
2018-09-22T13:17:50.492Z,93.90
2018-09-22T13:20:19.353Z,93.30
2018-09-22T13:22:47.541Z,93.00
2018-09-22T13:25:15.774Z,92.00
2018-09-22T13:27:44.040Z,91.50
2018-09-22T13:30:12.394Z,92.00
2018-09-22T13:32:40.610Z,92.10
2018-09-22T13:35:11.876Z,91.50
2018-09-22T13:37:40.080Z,91.90
2018-09-22T13:40:08.452Z,91.90
2018-09-22T13:42:36.735Z,90.50
2018-09-22T13:45:05.160Z,88.80
2018-09-22T13:47:33.663Z,89.90
2018-09-22T13:50:12.043Z,89.30
2018-09-22T13:52:40.399Z,90.30
2018-09-22T13:55:08.716Z,90.00
2018-09-22T13:57:37.889Z,90.10
2018-09-22T14:00:06.136Z,89.10
2018-09-22T14:02:34.389Z,85.20
2018-09-22T14:05:07.500Z,84.10
2018-09-22T14:07:35.782Z,82.90
2018-09-22T14:10:04.230Z,82.60
2018-09-22T14:12:33.375Z,80.60
2018-09-22T14:15:01.611Z,80.60
2018-09-22T14:17:29.948Z,77.70
2018-09-22T14:19:58.556Z,76.80
2018-09-22T14:22:27.057Z,77.90
2018-09-22T14:24:55.419Z,78.30
2018-09-22T14:27:23.689Z,75.40
2018-09-22T14:29:51.897Z,74.90
2018-09-22T14:32:20.114Z,75.50
2018-09-22T14:34:48.289Z,74.80
2018-09-22T14:37:20.415Z,75.90
2018-09-22T14:39:50.000Z,76.10
2018-09-22T14:42:18.876Z,76.10
2018-09-22T14:44:47.077Z,76.10
2018-09-22T14:47:15.343Z,74.10
2018-09-22T14:49:51.646Z,74.40
2018-09-22T14:52:19.916Z,73.50
2018-09-22T14:54:48.114Z,73.60
2018-09-22T14:57:16.590Z,73.50
2018-09-22T14:59:44.824Z,73.90
2018-09-22T15:02:13.075Z,75.30
2018-09-22T15:04:41.801Z,76.90
2018-09-22T15:07:10.060Z,74.30
2018-09-22T15:09:38.278Z,75.40
2018-09-22T15:12:06.465Z,73.70
2018-09-22T15:14:34.753Z,74.00
2018-09-22T15:17:02.940Z,73.20
2018-09-22T15:19:35.561Z,72.80
2018-09-22T15:22:07.956Z,73.80
2018-09-22T15:24:36.381Z,71.10
2018-09-22T15:27:05.137Z,70.60
2018-09-22T15:29:33.412Z,69.40
2018-09-22T15:32:01.639Z,69.20
2018-09-22T15:34:31.930Z,68.60
2018-09-22T15:37:03.164Z,69.60
2018-09-22T15:39:31.328Z,70.60
2018-09-22T15:41:59.553Z,72.00
2018-09-22T15:44:27.739Z,71.40
2018-09-22T15:46:56.023Z,73.10
2018-09-22T15:49:24.263Z,72.30
2018-09-22T15:51:52.440Z,72.60
2018-09-22T15:54:20.732Z,73.00
2018-09-22T15:56:48.926Z,73.20
2018-09-22T15:59:17.262Z,74.30
2018-09-22T16:01:45.588Z,74.60
2018-09-22T16:04:13.837Z,74.80
2018-09-22T16:06:46.562Z,74.70
2018-09-22T16:09:14.983Z,75.30
2018-09-22T16:11:43.257Z,74.70
2018-09-22T16:14:11.542Z,75.00
2018-09-22T16:16:40.216Z,74.80
2018-09-22T16:19:08.410Z,74.80
2018-09-22T16:21:36.704Z,74.30
2018-09-22T16:24:05.396Z,74.50
2018-09-22T16:26:33.595Z,74.30
2018-09-22T16:29:01.844Z,74.30
2018-09-22T16:31:30.013Z,74.40
2018-09-22T16:33:58.165Z,75.00
2018-09-22T16:36:33.201Z,75.80
2018-09-22T16:39:01.383Z,75.80
2018-09-22T16:46:21.971Z,75.80
2018-09-22T16:48:50.159Z,76.40
2018-09-22T16:51:18.378Z,77.70
2018-09-22T16:53:46.608Z,77.40
2018-09-22T16:56:14.804Z,77.80
2018-09-22T16:58:43.030Z,77.80
2018-09-22T17:01:11.305Z,78.40
2018-09-22T17:03:39.563Z,77.50
2018-09-22T17:06:07.749Z,78.00
2018-09-22T17:08:35.968Z,78.70
2018-09-22T17:11:04.217Z,78.40
2018-09-22T17:13:32.415Z,78.50
2018-09-22T17:16:00.675Z,78.90
2018-09-22T17:18:28.837Z,79.20
2018-09-22T17:20:57.051Z,79.60
2018-09-22T17:23:25.323Z,79.80
2018-09-22T17:25:53.903Z,80.60
2018-09-22T17:28:22.136Z,80.50
2018-09-22T17:30:50.581Z,80.60
2018-09-22T17:33:18.804Z,80.80
2018-09-22T17:35:48.207Z,81.30
2018-09-22T17:38:16.464Z,81.80
2018-09-22T17:40:47.730Z,82.10
2018-09-22T17:43:17.304Z,82.20
2018-09-22T17:45:45.518Z,82.10
2018-09-22T17:48:17.080Z,81.80
2018-09-22T17:50:45.281Z,82.50
2018-09-22T17:53:21.423Z,82.70
2018-09-22T17:55:49.813Z,82.60
2018-09-22T17:58:18.052Z,82.70
2018-09-22T18:00:46.242Z,83.00
2018-09-22T18:03:14.472Z,83.50
2018-09-22T18:05:42.753Z,84.00
2018-09-22T18:08:14.121Z,84.20
2018-09-22T18:10:42.324Z,84.40
2018-09-22T18:13:10.544Z,84.20
2018-09-22T18:15:39.710Z,84.80
2018-09-22T18:18:07.889Z,84.80
2018-09-22T18:20:36.127Z,85.20
2018-09-22T18:23:08.468Z,85.40
2018-09-22T18:25:36.641Z,85.90
2018-09-22T18:28:04.845Z,86.00
2018-09-22T18:30:33.035Z,86.20
2018-09-22T18:33:01.220Z,86.90
2018-09-22T18:35:30.000Z,86.50
2018-09-22T18:38:01.921Z,87.10
2018-09-22T18:40:30.167Z,87.00
2018-09-22T18:42:58.359Z,87.60
2018-09-22T18:45:26.667Z,87.70
2018-09-22T18:47:54.890Z,87.80
2018-09-22T18:50:23.093Z,88.20
2018-09-22T18:52:51.340Z,88.10
2018-09-22T18:55:19.594Z,90.20
2018-09-22T18:57:47.868Z,90.20
2018-09-22T19:00:16.091Z,91.50
2018-09-22T19:02:44.313Z,92.90
2018-09-22T19:05:13.139Z,92.00
2018-09-22T19:07:41.384Z,92.80
2018-09-22T19:10:09.625Z,93.60
2018-09-22T19:12:38.757Z,93.50
2018-09-22T19:16:11.384Z,94.80
2018-09-22T19:18:48.414Z,95.10
2018-09-22T19:22:21.128Z,95.20
2018-09-22T19:24:52.054Z,95.90
2018-09-22T19:27:25.364Z,97.00
2018-09-22T19:30:27.942Z,95.40
2018-09-22T19:32:59.512Z,94.90
2018-09-22T19:35:32.099Z,94.60
2018-09-22T19:38:22.617Z,94.80
2018-09-22T19:41:02.213Z,94.70
2018-09-22T19:48:33.012Z,94.30
2018-09-22T19:51:05.906Z,94.50
2018-09-22T19:53:34.291Z,95.50
2018-09-22T19:56:09.224Z,94.40
2018-09-22T19:58:38.193Z,94.60
2018-09-22T20:01:06.783Z,94.40
2018-09-22T20:03:35.076Z,93.70
2018-09-22T20:06:03.217Z,92.80
2018-09-22T20:13:24.027Z,92.20
2018-09-22T20:15:52.372Z,91.90
2018-09-22T20:18:21.334Z,91.70
2018-09-22T20:20:49.582Z,92.00
2018-09-22T20:23:17.844Z,91.80
2018-09-22T20:25:46.252Z,91.80
2018-09-22T20:28:14.540Z,92.10
2018-09-22T20:30:42.742Z,92.10
2018-09-22T20:33:10.985Z,92.10
2018-09-22T20:35:39.275Z,92.10
2018-09-22T20:38:07.501Z,91.80
2018-09-22T20:40:40.226Z,92.10
2018-09-22T20:43:08.429Z,92.00
2018-09-22T20:45:36.685Z,92.20
2018-09-22T20:48:04.973Z,92.30
2018-09-22T20:50:33.581Z,92.60
2018-09-22T20:53:01.781Z,92.30
2018-09-22T20:55:41.556Z,92.80
2018-09-22T20:58:09.783Z,92.80
2018-09-22T21:00:37.965Z,92.50
2018-09-22T21:03:06.180Z,92.60
2018-09-22T21:05:34.369Z,92.70
2018-09-22T21:08:02.565Z,93.00
2018-09-22T21:10:35.200Z,94.10
2018-09-22T21:13:03.383Z,93.70
2018-09-22T21:15:31.616Z,93.30
2018-09-22T21:17:59.833Z,93.50
2018-09-22T21:20:28.075Z,93.10
2018-09-22T21:22:57.207Z,93.50
2018-09-22T21:25:25.483Z,93.70
2018-09-22T21:27:54.069Z,94.50
2018-09-22T21:30:22.348Z,93.30
2018-09-22T21:32:50.504Z,93.30
2018-09-22T21:35:18.831Z,93.60
2018-09-22T21:37:47.047Z,93.20
2018-09-22T21:40:15.227Z,93.60
2018-09-22T21:42:48.125Z,93.50
2018-09-22T21:45:16.297Z,93.40
2018-09-22T21:47:44.598Z,93.30
2018-09-22T21:50:15.709Z,93.00
2018-09-22T21:52:47.804Z,93.70
2018-09-22T21:55:16.082Z,94.80
2018-09-22T21:57:47.634Z,94.80
2018-09-22T22:00:15.844Z,96.30
2018-09-22T22:02:44.023Z,96.20
2018-09-22T22:05:12.236Z,97.70
2018-09-22T22:07:40.428Z,97.80
2018-09-22T22:10:08.650Z,97.20
2018-09-22T22:12:41.867Z,97.70
2018-09-22T22:15:10.102Z,98.30
2018-09-22T22:17:38.299Z,98.60
2018-09-22T22:20:06.563Z,98.60
2018-09-22T22:22:34.789Z,99.90
2018-09-22T22:25:03.106Z,99.90
2018-09-22T22:27:34.612Z,99.90
2018-09-22T22:30:03.758Z,99.90
2018-09-22T22:32:31.967Z,99.90
2018-09-22T22:35:00.263Z,99.90
2018-09-22T22:37:28.493Z,99.90
2018-09-22T22:39:56.713Z,99.90
2018-09-22T22:42:29.184Z,99.90
2018-09-22T22:44:57.392Z,99.90
2018-09-22T22:47:25.668Z,99.90
2018-09-22T22:49:53.920Z,99.90
2018-09-22T22:52:22.125Z,99.90
2018-09-22T22:54:50.329Z,99.90
2018-09-22T22:57:21.592Z,99.90
2018-09-22T22:59:49.780Z,99.90
2018-09-22T23:02:18.660Z,99.90
2018-09-22T23:04:46.876Z,99.90
2018-09-22T23:07:15.107Z,99.90
2018-09-22T23:09:43.603Z,99.90
2018-09-22T23:12:11.864Z,99.90
2018-09-22T23:14:40.376Z,99.90
2018-09-22T23:17:08.560Z,99.90
2018-09-22T23:19:36.848Z,99.90
2018-09-22T23:22:05.043Z,99.90
2018-09-22T23:24:33.267Z,99.90
2018-09-22T23:27:01.485Z,99.90
2018-09-22T23:29:29.716Z,99.90
2018-09-22T23:31:58.184Z,99.90
2018-09-22T23:34:26.395Z,99.90
2018-09-22T23:36:54.648Z,99.90
2018-09-22T23:39:22.877Z,99.90
2018-09-22T23:41:51.063Z,99.90
2018-09-22T23:44:19.264Z,99.90
2018-09-22T23:46:47.496Z,99.90
2018-09-22T23:49:15.699Z,99.90
2018-09-22T23:51:43.943Z,99.90
2018-09-22T23:54:12.168Z,99.90
2018-09-22T23:56:40.375Z,99.90
2018-09-22T23:59:08.650Z,99.90
